Time;durP1;ratioP1;P1;durP2;ratioP2;P2;SDS_P1;SDS_P2;PMS_P1;PMS_P2;Temp;Humidity;BMP_temperature;BMP_pressure;BME280_temperature;BME280_humidity;BME280_pressure;Samples;Min_cycle;Max_cycle;Signal;HPM_P1;HPM_P2
2022/12/27 00:01:18;;;;;;;12.50;3.90;;;;;;;5.31;80.21;102230.53;5061599;28;20048;-52
2022/12/27 00:03:43;;;;;;;9.80;3.33;;;;;;;5.28;79.72;102237.97;5064506;28;20025;-53
2022/12/27 00:06:16;;;;;;;9.65;3.67;;;;;;;5.26;80.11;102234.41;5063377;28;20036;-46
2022/12/27 00:08:43;;;;;;;11.43;3.80;;;;;;;5.27;80.11;102238.72;5063472;28;20086;-52
2022/12/27 00:11:14;;;;;;;10.77;4.00;;;;;;;5.29;79.93;102234.63;5065028;28;20071;-51
2022/12/27 00:13:40;;;;;;;7.38;3.75;;;;;;;5.24;80.17;102238.53;5064662;28;20495;-50
2022/12/27 00:16:11;;;;;;;10.80;3.80;;;;;;;5.28;80.27;102243.06;5064896;28;20029;-51
2022/12/27 00:18:38;;;;;;;10.93;3.55;;;;;;;5.24;80.38;102243.63;5068610;28;20649;-51
2022/12/27 00:21:05;;;;;;;11.25;3.60;;;;;;;5.28;80.35;102239.63;5063684;28;20032;-44
2022/12/27 00:23:36;;;;;;;7.53;3.53;;;;;;;5.30;80.39;102246.59;5066419;28;20427;-53
2022/12/27 00:26:04;;;;;;;12.73;3.40;;;;;;;5.25;80.41;102247.94;5066671;28;20044;-52
2022/12/27 00:28:31;;;;;;;10.30;3.60;;;;;;;5.26;80.55;102247.16;5065663;28;20052;-52
2022/12/27 00:30:57;;;;;;;11.55;3.70;;;;;;;5.27;80.71;102251.47;5063944;28;20115;-47
2022/12/27 00:33:23;;;;;;;9.77;3.88;;;;;;;5.25;80.98;102241.94;5067876;28;20029;-51
2022/12/27 00:35:48;;;;;;;8.98;3.35;;;;;;;5.27;80.89;102242.94;5066122;28;20039;-53
2022/12/27 00:38:13;;;;;;;12.63;3.67;;;;;;;5.23;81.18;102252.06;5063789;28;20029;-53
2022/12/27 00:40:40;;;;;;;10.48;3.88;;;;;;;5.26;80.70;102246.28;5065962;28;20400;-49
2022/12/27 00:43:05;;;;;;;9.93;3.45;;;;;;;5.19;81.05;102244.06;5063965;28;20028;-52
2022/12/27 00:45:31;;;;;;;7.93;3.08;;;;;;;5.20;81.34;102246.72;5066251;28;20028;-51
2022/12/27 00:47:56;;;;;;;10.60;3.63;;;;;;;5.15;81.54;102258.25;5066902;28;20036;-52
2022/12/27 00:50:21;;;;;;;8.43;3.45;;;;;;;5.16;81.72;102262.59;5064642;28;20094;-49
2022/12/27 00:52:47;;;;;;;8.55;3.80;;;;;;;5.13;81.59;102264.03;5066315;28;20593;-44
2022/12/27 00:55:12;;;;;;;10.55;3.30;;;;;;;5.12;81.55;102265.69;5066376;28;20035;-52
2022/12/27 00:57:38;;;;;;;12.93;3.85;;;;;;;5.14;81.80;102264.13;5062698;28;20040;-51
2022/12/27 01:00:04;;;;;;;13.07;3.92;;;;;;;5.14;81.94;102268.34;5063344;28;20109;-52
2022/12/27 01:02:30;;;;;;;10.38;3.35;;;;;;;5.14;81.91;102270.88;5070901;28;20119;-51
2022/12/27 01:04:56;;;;;;;8.05;3.03;;;;;;;5.18;81.75;102278.00;5063494;28;20038;-50
2022/12/27 01:07:22;;;;;;;10.85;3.33;;;;;;;5.16;81.53;102272.78;5062925;28;20063;-49
2022/12/27 01:09:48;;;;;;;9.63;2.75;;;;;;;5.17;81.51;102276.22;5068449;28;20381;-47
2022/12/27 01:12:13;;;;;;;9.90;3.40;;;;;;;5.20;81.92;102274.75;5063343;28;20020;-50
2022/12/27 01:14:39;;;;;;;10.57;3.33;;;;;;;5.18;81.86;102276.34;5063971;28;20047;-53
2022/12/27 01:17:04;;;;;;;9.15;3.35;;;;;;;5.20;81.79;102281.53;5065938;28;20413;-47
2022/12/27 01:19:30;;;;;;;9.82;3.33;;;;;;;5.17;81.73;102277.13;5060465;28;20448;-45
2022/12/27 01:21:55;;;;;;;8.10;3.35;;;;;;;5.18;81.96;102278.00;5064990;28;20044;-52
2022/12/27 01:24:20;;;;;;;11.88;3.20;;;;;;;5.13;81.58;102284.41;5063711;28;20059;-44
2022/12/27 01:26:46;;;;;;;8.00;3.17;;;;;;;5.16;82.06;102288.09;5056929;28;20388;-51
2022/12/27 01:29:11;;;;;;;9.23;3.10;;;;;;;5.13;82.20;102292.94;5061049;28;20036;-52
2022/12/27 01:31:37;;;;;;;7.25;3.28;;;;;;;5.14;81.87;102298.94;5064606;28;20032;-49
2022/12/27 01:34:03;;;;;;;7.55;3.05;;;;;;;5.12;82.06;102291.19;5067638;28;20058;-47
2022/12/27 01:36:30;;;;;;;9.48;3.30;;;;;;;5.13;82.12;102303.16;5064227;28;20037;-52
2022/12/27 01:38:56;;;;;;;10.55;3.35;;;;;;;5.08;82.54;102310.47;5064784;28;20526;-53
2022/12/27 01:44:37;;;;;;;12.77;3.20;;;;;;;5.18;82.54;102309.47;5062594;28;20446;-52
2022/12/27 01:47:11;;;;;;;9.98;3.42;;;;;;;5.13;82.84;102315.91;5061870;28;20032;-52
2022/12/27 01:49:38;;;;;;;10.65;3.30;;;;;;;5.09;82.81;102317.31;5065252;28;20027;-51
2022/12/27 01:52:05;;;;;;;9.07;3.00;;;;;;;5.11;82.95;102314.91;5063736;28;20066;-53
2022/12/27 01:54:30;;;;;;;14.73;3.67;;;;;;;5.10;83.16;102318.25;5067866;28;20032;-50
2022/12/27 01:56:56;;;;;;;9.70;2.75;;;;;;;5.11;83.38;102315.81;5066357;28;20600;-48
2022/12/27 01:59:23;;;;;;;10.18;3.38;;;;;;;5.14;83.06;102324.44;5066339;28;20035;-48
2022/12/27 02:01:49;;;;;;;6.70;3.15;;;;;;;5.08;83.41;102325.75;5062011;28;20568;-51
2022/12/27 02:04:19;;;;;;;10.05;4.00;;;;;;;5.14;83.81;102330.41;5062672;28;20039;-51
2022/12/27 02:06:45;;;;;;;10.68;3.35;;;;;;;5.14;83.55;102327.88;5061938;28;20079;-46
2022/12/27 02:09:26;;;;;;;8.90;3.53;;;;;;;5.21;83.74;102335.19;5060810;28;20418;-48
2022/12/27 02:11:56;;;;;;;7.85;2.75;;;;;;;5.17;83.83;102334.88;5062504;28;20040;-51
2022/12/27 02:14:38;;;;;;;11.20;3.17;;;;;;;5.17;84.15;102333.22;5062188;28;20052;-52
2022/12/27 02:17:10;;;;;;;8.27;3.13;;;;;;;5.15;84.02;102333.84;5063411;28;20054;-51
2022/12/27 02:19:47;;;;;;;11.88;3.10;;;;;;;5.13;84.02;102328.66;5065269;28;20032;-49
2022/12/27 02:24:01;;;;;;;12.68;2.78;;;;;;;5.20;84.11;102335.97;5064292;28;20082;-51
2022/12/27 02:25:35;;;;;;;11.55;3.33;;;;;;;5.18;84.36;102340.09;5062461;28;20048;-46
2022/12/27 02:28:19;;;;;;;10.35;2.90;;;;;;;5.17;84.20;102340.88;5080415;28;20044;-50
2022/12/27 02:30:48;;;;;;;11.27;3.10;;;;;;;5.14;84.39;102334.63;5064223;28;20032;-46
2022/12/27 02:33:28;;;;;;;11.80;3.33;;;;;;;5.20;84.36;102335.09;5061371;28;20473;-50
2022/12/27 02:36:00;;;;;;;10.98;2.80;;;;;;;5.13;84.64;102331.19;5062775;28;20028;-52
2022/12/27 02:38:33;;;;;;;9.43;3.08;;;;;;;5.12;85.00;102339.63;5062446;28;20031;-51
2022/12/27 02:59:09;;;;;;;8.23;2.63;;;;;;;5.20;85.56;102347.84;5061147;28;20051;-51
2022/12/27 03:05:28;;;;;;;12.77;2.88;;;;;;;5.21;85.45;102340.28;5061447;28;20182;-43
2022/12/27 03:08:15;;;;;;;12.05;2.88;;;;;;;5.15;85.65;102342.38;5063693;28;20097;-50
2022/12/27 03:16:40;;;;;;;9.73;2.65;;;;;;;5.17;86.33;102339.97;5060264;28;20079;-52
2022/12/27 03:19:08;;;;;;;9.98;2.58;;;;;;;5.12;86.33;102337.09;5067919;28;20047;-45
2022/12/27 03:27:19;;;;;;;9.38;2.75;;;;;;;5.17;86.67;102350.19;5063818;28;20109;-52
2022/12/27 03:33:13;;;;;;;12.05;2.80;;;;;;;5.14;86.82;102353.38;5065275;28;20057;-53
2022/12/27 03:35:39;;;;;;;7.85;2.50;;;;;;;5.09;86.72;102362.34;5054160;28;20040;-52
2022/12/27 03:38:08;;;;;;;9.90;3.08;;;;;;;5.11;87.01;102371.00;5065926;28;20024;-43
2022/12/27 03:43:41;;;;;;;9.93;2.85;;;;;;;5.15;87.17;102397.59;5063845;28;20078;-53
2022/12/27 03:46:34;;;;;;;9.15;3.10;;;;;;;5.18;87.82;102398.72;5063455;28;20489;-53
2022/12/27 03:49:18;;;;;;;10.82;2.80;;;;;;;5.20;88.33;102369.13;5059980;28;20575;-48
2022/12/27 03:52:11;;;;;;;10.23;2.63;;;;;;;5.20;89.32;102361.47;5063401;28;20060;-51
2022/12/27 03:54:39;;;;;;;13.75;2.65;;;;;;;5.16;89.85;102361.13;5064573;28;20082;-52
2022/12/27 03:57:08;;;;;;;10.75;2.78;;;;;;;5.13;89.88;102369.44;5060417;28;20083;-43
2022/12/27 03:59:33;;;;;;;10.48;2.80;;;;;;;5.16;89.79;102372.25;5062153;28;20055;-48
2022/12/27 04:02:00;;;;;;;10.50;2.90;;;;;;;5.15;89.91;102383.19;5062959;28;20473;-52
2022/12/27 04:04:25;;;;;;;13.10;3.03;;;;;;;5.16;89.87;102386.63;5059036;28;20035;-49
2022/12/27 04:06:51;;;;;;;10.65;2.55;;;;;;;5.16;89.95;102386.63;5061279;28;20037;-50
2022/12/27 04:36:38;;;;;;;11.95;3.00;;;;;;;5.13;90.01;102384.75;5060159;28;20094;-48
2022/12/27 04:39:03;;;;;;;11.05;2.80;;;;;;;5.13;89.67;102379.66;5060401;28;20032;-52
2022/12/27 04:55:16;;;;;;;10.10;2.33;;;;;;;5.16;89.85;102404.47;5062954;28;20093;-47
2022/12/27 04:57:41;;;;;;;14.00;2.50;;;;;;;5.11;89.54;102396.50;5059303;28;20481;-53
2022/12/27 05:02:53;;;;;;;10.18;2.25;;;;;;;5.16;89.36;102405.38;5034414;28;20052;-52
2022/12/27 05:05:20;;;;;;;8.15;2.33;;;;;;;5.13;90.08;102410.25;5066189;28;20036;-48
2022/12/27 05:15:57;;;;;;;11.95;2.90;;;;;;;5.19;89.85;102399.63;5063803;28;20137;-53
2022/12/27 05:18:23;;;;;;;7.70;2.75;;;;;;;5.20;89.84;102397.16;5063859;28;20040;-49
2022/12/27 05:20:48;;;;;;;13.65;2.50;;;;;;;5.17;89.87;102402.06;5062815;28;20035;-54
2022/12/27 05:25:58;;;;;;;8.25;2.60;;;;;;;5.14;89.44;102404.38;5071943;28;20046;-53
2022/12/27 05:28:23;;;;;;;8.68;2.40;;;;;;;5.17;89.91;102407.16;5072671;28;20501;-52
2022/12/27 05:30:48;;;;;;;9.18;2.42;;;;;;;5.11;89.65;102415.25;5066489;28;20032;-54
2022/12/27 05:33:14;;;;;;;7.90;2.50;;;;;;;5.12;89.78;102421.22;5060142;28;20040;-45
2022/12/27 05:35:39;;;;;;;9.32;2.55;;;;;;;5.14;89.94;102417.13;5063407;28;20035;-51
2022/12/27 05:38:05;;;;;;;8.80;2.50;;;;;;;5.16;89.94;102424.88;5062828;28;20025;-53
2022/12/27 05:40:31;;;;;;;9.95;2.38;;;;;;;5.15;89.98;102425.66;5061629;28;20059;-53
2022/12/27 05:42:58;;;;;;;9.23;2.50;;;;;;;5.15;89.50;102431.63;5061745;28;20043;-51
2022/12/27 05:45:23;;;;;;;7.45;2.63;;;;;;;5.09;89.39;102439.72;5065961;28;20063;-48
2022/12/27 05:47:49;;;;;;;9.63;2.20;;;;;;;5.10;89.39;102440.63;5064601;28;20052;-53
2022/12/27 05:50:14;;;;;;;6.65;2.05;;;;;;;5.13;89.61;102453.59;5064788;28;20033;-53
2022/12/27 05:52:40;;;;;;;13.88;2.53;;;;;;;5.14;89.65;102450.25;5064903;28;20043;-52
2022/12/27 05:55:06;;;;;;;7.50;2.85;;;;;;;5.14;89.60;102455.38;5063445;28;20131;-52
2022/12/27 05:57:32;;;;;;;9.68;2.45;;;;;;;5.15;89.69;102456.25;5063267;28;20041;-51
2022/12/27 05:59:57;;;;;;;10.60;2.25;;;;;;;5.18;89.49;102459.06;5066539;28;20024;-53
2022/12/27 06:02:22;;;;;;;9.52;2.15;;;;;;;5.20;89.61;102454.94;5062774;28;20063;-51
2022/12/27 06:04:48;;;;;;;7.05;2.00;;;;;;;5.20;89.81;102452.38;5065472;28;20037;-54
2022/12/27 06:07:14;;;;;;;11.63;2.50;;;;;;;5.21;90.24;102447.41;5061620;28;20029;-53
2022/12/27 06:09:40;;;;;;;9.15;2.50;;;;;;;5.23;90.35;102450.97;5068015;28;20046;-46
2022/12/27 06:12:05;;;;;;;11.90;3.10;;;;;;;5.26;91.10;102440.97;5060482;28;20599;-51
2022/12/27 06:14:31;;;;;;;10.55;3.00;;;;;;;5.28;91.32;102446.22;5064417;28;20070;-53
2022/12/27 06:16:56;;;;;;;10.65;3.78;;;;;;;5.29;91.65;102448.88;5063849;28;20074;-53
2022/12/27 06:19:22;;;;;;;10.38;3.40;;;;;;;5.29;91.44;102459.09;5066011;28;20036;-52
2022/12/27 06:21:47;;;;;;;14.02;3.45;;;;;;;5.30;91.26;102459.97;5064527;28;20063;-52
2022/12/27 06:24:13;;;;;;;11.98;3.42;;;;;;;5.26;91.12;102458.84;5065528;28;20044;-51
2022/12/27 06:26:38;;;;;;;12.00;3.13;;;;;;;5.24;91.18;102456.97;5063766;28;20434;-53
2022/12/27 06:29:03;;;;;;;8.98;3.38;;;;;;;5.21;90.85;102467.78;5064128;28;20024;-53
2022/12/27 06:31:29;;;;;;;10.10;3.58;;;;;;;5.18;90.86;102472.69;5065182;28;20535;-50
2022/12/27 06:33:55;;;;;;;12.93;3.28;;;;;;;5.20;90.86;102470.25;5064910;28;20033;-50
2022/12/27 06:36:22;;;;;;;7.90;3.63;;;;;;;5.17;90.53;102473.47;5060957;28;20051;-44
2022/12/27 06:38:48;;;;;;;10.23;3.70;;;;;;;5.13;90.68;102471.44;5062355;28;20115;-48
2022/12/27 06:41:16;;;;;;;10.43;4.15;;;;;;;5.13;90.71;102471.44;5063498;28;20134;-52
2022/12/27 06:43:42;;;;;;;10.18;3.78;;;;;;;5.15;90.56;102476.66;5058223;28;20033;-53
2022/12/27 06:46:16;;;;;;;13.48;3.83;;;;;;;5.13;90.44;102480.75;5062800;28;20054;-52
2022/12/27 06:48:45;;;;;;;11.35;3.47;;;;;;;5.09;90.05;102470.31;5062155;28;20032;-50
2022/12/27 06:51:12;;;;;;;11.45;3.25;;;;;;;5.13;90.19;102478.22;5056729;28;20432;-50
2022/12/27 06:53:38;;;;;;;8.10;2.78;;;;;;;5.03;90.30;102472.41;5062167;28;20473;-49
2022/12/27 06:56:08;;;;;;;11.35;3.00;;;;;;;5.08;89.91;102477.84;5065971;28;20082;-52
2022/12/27 06:58:33;;;;;;;8.63;2.97;;;;;;;5.06;89.93;102475.19;5060374;28;20033;-46
2022/12/27 07:01:13;;;;;;;8.27;2.67;;;;;;;5.10;89.61;102474.66;5056552;28;20042;-47
2022/12/27 07:03:39;;;;;;;13.63;3.40;;;;;;;5.03;89.56;102479.16;5061023;28;20028;-48
2022/12/27 07:06:07;;;;;;;9.50;3.35;;;;;;;5.04;89.74;102483.50;5063545;28;20035;-49
2022/12/27 07:08:34;;;;;;;10.93;3.17;;;;;;;5.00;89.72;102496.78;5065318;28;20388;-51
2022/12/27 07:11:02;;;;;;;11.00;3.22;;;;;;;5.01;89.93;102488.38;5060487;28;20037;-51
2022/12/27 07:13:27;;;;;;;10.35;2.67;;;;;;;5.01;89.50;102494.34;5062404;28;20028;-46
2022/12/27 07:15:53;;;;;;;11.18;2.85;;;;;;;4.97;89.42;102496.53;5062659;28;20539;-49
2022/12/27 07:18:18;;;;;;;9.25;2.70;;;;;;;4.97;89.21;102494.88;5066694;28;20526;-53
2022/12/27 07:20:43;;;;;;;9.55;2.90;;;;;;;4.94;88.52;102496.31;5061439;28;20524;-49
2022/12/27 07:23:09;;;;;;;9.77;3.15;;;;;;;4.92;89.23;102497.88;5060862;28;20567;-53
2022/12/27 07:25:34;;;;;;;11.27;3.00;;;;;;;4.88;89.33;102500.94;5059591;28;20036;-49
2022/12/27 07:27:59;;;;;;;8.55;2.88;;;;;;;4.88;89.24;102493.31;5061166;28;20364;-53
2022/12/27 07:30:25;;;;;;;9.25;2.75;;;;;;;4.88;89.44;102500.94;5062497;28;20123;-52
2022/12/27 07:32:50;;;;;;;12.38;3.00;;;;;;;4.89;89.30;102506.16;5062526;28;20032;-50
2022/12/27 07:35:16;;;;;;;10.85;2.90;;;;;;;4.87;89.50;102501.72;5064356;28;20032;-50
2022/12/27 07:37:41;;;;;;;8.55;2.80;;;;;;;4.87;89.45;102501.72;5059228;28;20123;-50
2022/12/27 07:40:07;;;;;;;11.80;3.13;;;;;;;4.84;89.37;102515.09;5063432;28;20040;-47
2022/12/27 07:42:32;;;;;;;7.93;2.90;;;;;;;4.79;89.35;102517.31;5065399;28;20393;-49
2022/12/27 07:44:58;;;;;;;12.07;2.58;;;;;;;4.77;89.67;102516.28;5059505;28;20445;-50
2022/12/27 07:47:23;;;;;;;10.75;2.92;;;;;;;4.75;89.60;102514.41;5061499;28;20032;-53
2022/12/27 07:49:48;;;;;;;7.47;2.90;;;;;;;4.77;89.85;102521.38;5063053;28;20032;-53
2022/12/27 07:52:14;;;;;;;12.73;3.63;;;;;;;4.77;89.63;102521.38;5062697;28;20036;-47
2022/12/27 07:54:40;;;;;;;11.20;4.13;;;;;;;4.78;89.85;102523.16;5061294;28;20055;-49
2022/12/27 07:57:06;;;;;;;12.43;3.60;;;;;;;4.73;89.79;102523.56;5058897;28;20036;-51
2022/12/27 07:59:31;;;;;;;11.38;3.17;;;;;;;4.76;89.82;102523.81;5066646;28;20040;-47
2022/12/27 08:02:03;;;;;;;13.27;3.38;;;;;;;4.75;90.08;102525.47;5059197;28;20116;-52
2022/12/27 08:04:29;;;;;;;9.65;3.03;;;;;;;4.75;89.89;102527.16;5054471;28;20091;-49
2022/12/27 08:07:12;;;;;;;10.70;3.33;;;;;;;4.75;90.54;102530.56;5059029;28;20033;-51
2022/12/27 08:09:40;;;;;;;9.63;3.40;;;;;;;4.72;89.96;102529.44;5062753;28;20480;-45
2022/12/27 08:12:06;;;;;;;7.60;3.03;;;;;;;4.71;90.10;102537.84;5057718;28;20044;-49
2022/12/27 08:14:32;;;;;;;9.95;2.97;;;;;;;4.77;90.20;102539.22;5070761;28;20397;-51
2022/12/27 08:17:03;;;;;;;11.25;3.00;;;;;;;4.79;90.29;102535.16;5056550;28;20037;-51
2022/12/27 08:19:29;;;;;;;9.30;2.80;;;;;;;4.77;90.28;102535.78;5050972;28;20052;-51
2022/12/27 08:21:54;;;;;;;11.57;3.05;;;;;;;4.78;90.37;102548.63;5054696;28;20910;-48
2022/12/27 08:24:20;;;;;;;11.55;3.20;;;;;;;4.79;90.33;102547.91;5054827;28;20845;-47
2022/12/27 08:26:45;;;;;;;9.10;3.53;;;;;;;4.83;90.56;102547.34;5060384;28;20078;-49
2022/12/27 08:29:10;;;;;;;9.57;3.50;;;;;;;4.87;90.64;102556.13;5067298;28;20146;-48
2022/12/27 08:31:36;;;;;;;8.05;3.17;;;;;;;4.92;90.26;102559.06;5064958;28;20064;-49
2022/12/27 08:34:02;;;;;;;8.80;3.22;;;;;;;4.94;90.27;102554.94;5066292;28;20487;-43
2022/12/27 08:36:27;;;;;;;13.00;3.60;;;;;;;4.94;90.64;102560.94;5068838;28;20032;-52
2022/12/27 08:38:53;;;;;;;9.65;3.47;;;;;;;4.96;90.48;102561.94;5066578;28;20028;-52
2022/12/27 08:41:20;;;;;;;11.73;3.53;;;;;;;4.97;90.45;102555.16;5066401;28;20059;-51
2022/12/27 08:43:46;;;;;;;11.32;3.42;;;;;;;5.02;90.33;102549.66;5069506;28;20051;-49
2022/12/27 08:46:11;;;;;;;10.40;3.55;;;;;;;5.02;90.21;102544.56;5090444;27;20447;-45
2022/12/27 08:48:37;;;;;;;11.82;3.70;;;;;;;5.04;90.46;102548.13;5069938;28;20039;-48
2022/12/27 08:51:04;;;;;;;9.93;3.70;;;;;;;5.09;90.53;102545.91;5070208;28;20035;-52
2022/12/27 08:53:30;;;;;;;11.70;4.18;;;;;;;5.11;90.80;102547.84;5067988;28;20028;-51
2022/12/27 08:55:56;;;;;;;9.18;4.60;;;;;;;5.13;91.02;102540.28;5065897;28;20028;-49
2022/12/27 08:58:22;;;;;;;11.68;4.20;;;;;;;5.23;91.11;102541.91;5060021;28;20067;-47
2022/12/27 09:00:47;;;;;;;10.90;4.03;;;;;;;5.26;90.73;102535.34;5060888;28;20032;-50
2022/12/27 09:03:13;;;;;;;12.57;3.75;;;;;;;5.33;90.40;102545.25;5062489;28;20040;-47
2022/12/27 09:05:39;;;;;;;9.05;3.50;;;;;;;5.41;90.72;102544.97;5063950;28;20036;-52
2022/12/27 09:08:04;;;;;;;12.57;3.97;;;;;;;5.52;90.05;102529.69;5054865;28;20040;-49
2022/12/27 09:10:29;;;;;;;8.77;3.70;;;;;;;5.65;89.75;102527.25;5055958;28;20126;-46
2022/12/27 09:12:55;;;;;;;8.80;3.33;;;;;;;5.71;89.35;102533.59;5057498;28;20032;-48
2022/12/27 09:15:20;;;;;;;11.82;3.85;;;;;;;5.77;89.13;102542.59;5060305;28;20159;-51
2022/12/27 09:17:46;;;;;;;11.27;3.92;;;;;;;5.93;88.79;102538.66;5059543;28;20033;-53
2022/12/27 09:20:11;;;;;;;11.82;3.45;;;;;;;6.00;88.54;102541.75;5061054;28;20036;-48
2022/12/27 09:22:37;;;;;;;9.35;3.58;;;;;;;6.00;88.26;102541.75;5053599;28;20087;-44
2022/12/27 09:25:03;;;;;;;9.20;3.78;;;;;;;6.07;88.01;102546.56;5061926;28;20052;-53
2022/12/27 09:27:29;;;;;;;9.52;3.30;;;;;;;6.13;87.38;102547.00;5062310;28;20527;-46
2022/12/27 09:29:54;;;;;;;8.45;3.75;;;;;;;6.21;87.50;102550.09;5057662;28;20032;-49
2022/12/27 09:32:20;;;;;;;12.52;3.85;;;;;;;6.23;87.58;102555.31;5068618;28;20031;-52
2022/12/27 09:34:45;;;;;;;12.30;3.80;;;;;;;6.32;87.30;102548.34;5066852;28;20119;-47
2022/12/27 09:37:11;;;;;;;11.52;3.55;;;;;;;6.37;87.57;102557.19;5071125;28;20424;-51
2022/12/27 09:39:36;;;;;;;12.98;3.50;;;;;;;6.48;86.99;102560.53;5081704;28;20040;-49
2022/12/27 09:42:10;;;;;;;8.13;3.17;;;;;;;6.53;87.25;102556.63;5079047;28;20038;-48
2022/12/27 09:45:01;;;;;;;9.57;3.08;;;;;;;6.56;87.07;102565.41;5068777;28;20047;-49
2022/12/27 09:47:47;;;;;;;10.30;3.03;;;;;;;6.66;87.03;102569.50;5064942;28;20033;-53
2022/12/27 09:50:16;;;;;;;7.35;3.38;;;;;;;6.69;86.54;102562.94;5058201;28;20056;-48
2022/12/27 09:52:59;;;;;;;13.50;3.70;;;;;;;6.85;86.54;102572.56;5061784;28;20126;-53
2022/12/27 09:55:49;;;;;;;10.57;3.42;;;;;;;6.90;86.02;102563.56;5067488;28;20048;-48
2022/12/27 09:58:31;;;;;;;11.88;3.53;;;;;;;7.04;85.89;102554.31;5069523;28;20111;-48
2022/12/27 10:00:56;;;;;;;9.20;3.00;;;;;;;7.12;85.23;102550.59;5066131;28;20028;-48
2022/12/27 10:03:25;;;;;;;9.52;3.00;;;;;;;7.22;85.05;102560.69;5064939;28;20034;-52
2022/12/27 10:06:03;;;;;;;8.02;2.88;;;;;;;7.35;84.39;102561.53;5063864;28;20032;-45
2022/12/27 10:08:54;;;;;;;10.45;2.78;;;;;;;7.52;84.29;102556.78;5063353;28;20040;-44
2022/12/27 10:11:39;;;;;;;10.65;3.20;;;;;;;7.64;83.99;102559.22;5061687;28;20175;-49
2022/12/27 10:14:20;;;;;;;9.65;3.75;;;;;;;7.87;83.90;102571.00;5058473;28;20020;-50
2022/12/27 10:17:22;;;;;;;10.45;3.10;;;;;;;8.01;83.46;102565.13;5065686;28;20028;-53
2022/12/27 10:20:06;;;;;;;11.85;3.17;;;;;;;8.24;82.84;102573.41;5052255;28;20074;-53
2022/12/27 10:22:39;;;;;;;8.73;2.92;;;;;;;8.33;81.23;102563.75;5055567;28;20044;-44
2022/12/27 10:25:11;;;;;;;7.63;3.10;;;;;;;8.40;80.94;102567.63;5055760;28;20029;-45
2022/12/27 10:27:38;;;;;;;7.25;2.90;;;;;;;8.52;80.34;102565.84;5052112;28;20052;-53
2022/12/27 10:30:21;;;;;;;12.38;3.28;;;;;;;8.65;81.06;102557.25;5047103;28;22193;-45
2022/12/27 10:32:47;;;;;;;8.40;2.88;;;;;;;8.84;79.83;102568.75;5056959;28;20454;-50
2022/12/27 10:35:15;;;;;;;9.80;4.15;;;;;;;8.96;78.87;102557.47;5051548;28;20393;-50
2022/12/27 10:37:41;;;;;;;11.57;3.55;;;;;;;9.07;78.13;102556.47;5058116;28;20057;-56
2022/12/27 10:40:13;;;;;;;11.02;3.45;;;;;;;9.27;78.08;102565.38;5058409;28;20448;-51
2022/12/27 10:42:44;;;;;;;11.10;3.05;;;;;;;9.46;77.35;102559.66;5053013;28;20503;-54
2022/12/27 10:45:33;;;;;;;5.88;2.42;;;;;;;9.73;77.55;102563.84;5055657;28;20361;-52
2022/12/27 10:48:12;;;;;;;12.38;3.20;;;;;;;9.98;76.89;102563.59;5058620;28;20059;-53
2022/12/27 10:50:38;;;;;;;;;;;;;;;10.29;79.09;102573.06;5057703;28;20034;-48
2022/12/27 10:53:04;;;;;;;11.57;3.72;;;;;;;10.41;73.06;102571.19;5055436;28;20369;-52
2022/12/27 10:55:35;;;;;;;9.32;3.17;;;;;;;10.41;72.93;102569.50;5052555;28;20025;-52
2022/12/27 10:58:40;;;;;;;9.40;2.88;;;;;;;10.41;74.25;102577.22;5054673;28;20724;-54
2022/12/27 11:01:13;;;;;;;8.82;3.20;;;;;;;10.13;72.61;102577.34;5054541;28;20051;-45
2022/12/27 11:03:38;;;;;;;7.80;2.55;;;;;;;9.97;73.06;102572.09;5048617;28;20066;-53
2022/12/27 11:06:15;;;;;;;11.85;2.97;;;;;;;9.85;73.31;102571.41;5056019;28;20154;-52
2022/12/27 11:08:41;;;;;;;6.53;2.50;;;;;;;9.69;73.69;102572.16;5062171;28;20028;-53
2022/12/27 11:11:18;;;;;;;7.82;2.70;;;;;;;9.57;75.05;102566.31;5056580;28;20106;-53
2022/12/27 11:13:46;;;;;;;9.60;2.65;;;;;;;9.48;74.16;102561.53;5054530;28;20028;-50
2022/12/27 11:16:30;;;;;;;8.40;2.70;;;;;;;9.32;75.37;102553.69;5060322;28;20388;-53
2022/12/27 11:18:58;;;;;;;9.48;3.42;;;;;;;9.25;75.39;102543.84;5057151;28;20025;-53
2022/12/27 11:21:24;;;;;;;9.02;3.00;;;;;;;9.19;75.46;102538.34;5055085;28;20063;-53
2022/12/27 11:23:54;;;;;;;11.63;3.10;;;;;;;9.14;76.13;102544.09;5059958;28;20085;-53
2022/12/27 11:26:23;;;;;;;9.18;2.60;;;;;;;9.14;76.20;102545.78;5055352;28;20054;-52
2022/12/27 11:28:54;;;;;;;12.48;3.13;;;;;;;9.03;77.08;102547.69;5059354;28;20111;-53
2022/12/27 11:31:36;;;;;;;12.73;3.33;;;;;;;9.02;77.49;102540.78;5057033;28;20078;-50
2022/12/27 11:34:25;;;;;;;7.20;3.00;;;;;;;9.07;77.50;102543.63;5061049;28;20040;-47
2022/12/27 11:36:54;;;;;;;5.83;2.53;;;;;;;8.94;77.40;102544.56;5063717;28;20493;-51
2022/12/27 11:39:39;;;;;;;9.38;3.10;;;;;;;8.91;78.33;102541.78;5050033;28;20293;-52
2022/12/27 11:42:43;;;;;;;7.35;2.80;;;;;;;8.89;78.33;102542.50;5059228;28;20392;-47
2022/12/27 11:45:17;;;;;;;7.00;2.70;;;;;;;8.78;78.61;102542.72;5064260;28;20035;-52
2022/12/27 11:47:56;;;;;;;10.27;2.88;;;;;;;8.79;78.51;102541.03;5061362;28;20028;-46
2022/12/27 11:50:27;;;;;;;6.53;2.38;;;;;;;8.69;78.81;102546.41;5058196;28;20292;-50
2022/12/27 11:53:29;;;;;;;8.95;3.20;;;;;;;8.72;79.04;102524.38;5060252;28;20389;-51
2022/12/27 11:56:11;;;;;;;11.18;2.60;;;;;;;8.63;78.56;102522.94;5059635;28;20111;-53
2022/12/27 11:59:01;;;;;;;10.13;2.90;;;;;;;8.57;79.42;102520.88;5062085;28;20362;-50
2022/12/27 12:01:45;;;;;;;6.65;2.45;;;;;;;8.58;79.56;102514.97;5068855;28;20477;-50
2022/12/27 12:04:28;;;;;;;9.20;2.58;;;;;;;8.59;79.63;102527.88;5065605;28;20672;-52
2022/12/27 12:06:58;;;;;;;8.63;2.75;;;;;;;8.46;79.27;102524.44;5062716;28;20393;-50
2022/12/27 12:09:40;;;;;;;7.28;2.70;;;;;;;8.53;79.91;102521.47;5065317;28;20028;-51
2022/12/27 12:12:48;;;;;;;9.60;2.67;;;;;;;8.53;79.90;102516.34;5068214;28;20092;-51
2022/12/27 12:15:32;;;;;;;8.87;2.63;;;;;;;8.48;79.99;102507.47;5063705;28;20590;-52
2022/12/27 12:18:19;;;;;;;9.20;2.95;;;;;;;8.47;80.09;102501.47;5065692;28;20044;-48
2022/12/27 12:21:06;;;;;;;9.35;2.45;;;;;;;8.40;80.08;102504.44;5069975;28;20039;-52
2022/12/27 12:23:37;;;;;;;9.00;3.05;;;;;;;8.28;80.15;102499.38;5064073;28;20048;-52
2022/12/27 12:26:02;;;;;;;8.27;2.90;;;;;;;8.26;80.40;102506.09;5069673;28;20047;-48
2022/12/27 12:28:46;;;;;;;8.40;3.30;;;;;;;8.30;81.00;102502.03;5073519;28;20020;-52
2022/12/27 12:31:17;;;;;;;6.97;3.35;;;;;;;8.32;80.41;102495.34;5070757;28;20366;-52
2022/12/27 12:34:02;;;;;;;7.45;3.30;;;;;;;8.37;80.68;102501.66;5066468;28;20028;-44
2022/12/27 12:36:47;;;;;;;6.22;2.83;;;;;;;8.36;81.27;102486.19;5070528;28;20074;-52
2022/12/27 12:39:16;;;;;;;8.82;2.67;;;;;;;8.32;80.63;102495.34;5076704;28;20023;-52
2022/12/27 12:42:09;;;;;;;8.65;2.72;;;;;;;8.36;80.92;102496.44;5072469;28;20472;-52
2022/12/27 12:45:04;;;;;;;11.32;3.17;;;;;;;8.46;81.14;102479.19;5075913;28;20512;-52
2022/12/27 12:47:57;;;;;;;9.13;2.90;;;;;;;8.49;80.89;102469.16;5067144;28;20035;-52
2022/12/27 12:50:26;;;;;;;8.40;2.83;;;;;;;8.43;81.12;102470.41;5072120;28;20562;-52
2022/12/27 12:52:57;;;;;;;8.77;2.95;;;;;;;8.46;80.93;102468.06;5075508;28;20117;-52
2022/12/27 12:55:44;;;;;;;8.07;3.00;;;;;;;8.56;81.22;102463.59;5070187;28;20035;-52
2022/12/27 12:58:41;;;;;;;8.40;2.80;;;;;;;8.65;81.31;102462.38;5069313;28;20040;-48
2022/12/27 13:01:32;;;;;;;8.45;2.95;;;;;;;8.65;81.33;102442.75;5072122;28;20075;-47
2022/12/27 13:04:09;;;;;;;5.90;2.65;;;;;;;8.71;81.33;102442.25;5071960;28;20024;-52
2022/12/27 13:07:31;;;;;;;11.63;3.25;;;;;;;8.76;81.42;102440.84;5070184;28;20044;-52
2022/12/27 13:09:56;;;;;;;8.63;2.70;;;;;;;8.66;81.04;102438.50;5043198;28;20433;-52
2022/12/27 13:12:34;;;;;;;7.20;2.60;;;;;;;8.66;81.45;102426.56;5061926;28;20116;-47
2022/12/27 13:15:32;;;;;;;6.68;2.83;;;;;;;8.69;81.19;102424.19;5061559;28;20420;-52
2022/12/27 13:18:17;;;;;;;11.80;3.25;;;;;;;8.62;80.77;102413.50;5063819;28;20028;-50
2022/12/27 13:21:13;;;;;;;5.53;2.45;;;;;;;8.63;81.42;102415.25;5064520;28;20033;-52
2022/12/27 13:23:42;;;;;;;10.55;2.83;;;;;;;8.57;80.98;102414.09;5064373;28;20056;-52
2022/12/27 13:26:10;;;;;;;;;;;;;;;8.75;80.75;102424.56;5061609;28;20073;-52